createdAt,value
2018-05-08T00:01:37.007Z,61.50
2018-05-08T00:04:06.246Z,61.70
2018-05-08T00:06:36.269Z,61.71
2018-05-08T00:09:06.287Z,62.37
2018-05-08T00:11:36.307Z,62.25
2018-05-08T00:14:05.585Z,62.87
2018-05-08T00:16:36.309Z,62.86
2018-05-08T00:19:07.006Z,62.61
2018-05-08T00:21:36.261Z,62.97
2018-05-08T00:24:06.235Z,63.17
2018-05-08T00:26:35.477Z,63.19
2018-05-08T00:29:05.439Z,63.48
2018-05-08T00:31:34.689Z,63.58
2018-05-08T00:34:04.664Z,63.89
2018-05-08T00:36:33.902Z,63.72
2018-05-08T00:39:04.043Z,63.43
2018-05-08T00:41:33.309Z,63.33
2018-05-08T00:44:02.476Z,63.42
2018-05-08T00:46:31.765Z,63.42
2018-05-08T00:49:01.022Z,64.21
2018-05-08T00:51:30.994Z,64.22
2018-05-08T00:54:00.208Z,64.21
2018-05-08T00:56:29.518Z,63.57
2018-05-08T00:58:59.525Z,63.76
2018-05-08T01:01:30.229Z,63.94
2018-05-08T01:03:59.455Z,63.84
2018-05-08T01:06:28.654Z,64.43
2018-05-08T01:08:57.884Z,63.83
2018-05-08T01:11:27.080Z,63.12
2018-05-08T01:13:56.310Z,63.38
2018-05-08T01:16:25.507Z,63.80
2018-05-08T01:18:55.550Z,63.82
2018-05-08T01:21:24.829Z,63.83
2018-05-08T01:23:54.063Z,63.37
2018-05-08T01:26:23.334Z,63.29
2018-05-08T01:28:52.536Z,63.02
2018-05-08T01:31:23.284Z,62.93
2018-05-08T01:33:52.575Z,62.90
2018-05-08T01:36:21.968Z,63.38
2018-05-08T01:38:51.190Z,64.61
2018-05-08T01:41:20.388Z,64.44
2018-05-08T01:43:50.383Z,64.97
2018-05-08T01:46:19.633Z,65.14
2018-05-08T01:48:48.880Z,65.27
2018-05-08T01:51:18.138Z,65.76
2018-05-08T01:53:47.341Z,65.47
2018-05-08T01:56:16.562Z,66.19
2018-05-08T01:58:45.819Z,66.12
2018-05-08T02:01:15.033Z,66.29
2018-05-08T02:03:44.331Z,66.59
2018-05-08T02:06:13.537Z,66.66
2018-05-08T02:08:42.748Z,66.85
2018-05-08T02:11:12.002Z,67.14
2018-05-08T02:13:41.228Z,67.06
2018-05-08T02:16:10.810Z,67.50
2018-05-08T02:18:40.761Z,66.76
2018-05-08T02:21:09.985Z,66.85
2018-05-08T02:23:39.241Z,67.09
2018-05-08T02:26:08.458Z,67.07
2018-05-08T02:28:37.665Z,67.25
2018-05-08T02:31:06.886Z,67.60
2018-05-08T02:33:36.076Z,67.75
2018-05-08T02:36:05.368Z,67.88
2018-05-08T02:38:34.573Z,67.54
2018-05-08T02:41:03.808Z,67.28
2018-05-08T02:43:33.025Z,67.00
2018-05-08T02:46:02.223Z,67.06
2018-05-08T02:48:31.533Z,67.28
2018-05-08T02:51:00.721Z,67.77
2018-05-08T02:53:29.957Z,67.60
2018-05-08T02:55:59.240Z,67.35
2018-05-08T02:58:28.449Z,67.63
2018-05-08T03:00:57.668Z,68.27
2018-05-08T03:03:27.649Z,67.84
2018-05-08T03:05:56.885Z,67.98
2018-05-08T03:08:26.857Z,68.16
2018-05-08T03:10:56.196Z,68.11
2018-05-08T03:13:25.477Z,68.20
2018-05-08T03:15:56.174Z,67.97
2018-05-08T03:18:25.469Z,68.70
2018-05-08T03:20:54.768Z,68.62
2018-05-08T03:23:24.102Z,68.79
2018-05-08T03:25:53.293Z,68.54
2018-05-08T03:28:22.535Z,68.67
2018-05-08T03:30:52.709Z,68.43
2018-05-08T03:33:22.130Z,68.85
2018-05-08T03:35:51.378Z,68.92
2018-05-08T03:38:20.606Z,68.81
2018-05-08T03:40:49.852Z,68.84
2018-05-08T03:43:19.904Z,68.86
2018-05-08T03:45:49.141Z,69.45
2018-05-08T03:48:18.361Z,69.09
2018-05-08T03:50:48.389Z,69.53
2018-05-08T03:53:18.395Z,69.17
2018-05-08T03:55:48.383Z,69.29
2018-05-08T03:58:17.603Z,69.81
2018-05-08T04:01:04.646Z,70.19
2018-05-08T04:03:52.215Z,70.15
2018-05-08T04:06:31.353Z,70.12
2018-05-08T04:09:00.630Z,70.35
2018-05-08T04:11:30.137Z,70.44
2018-05-08T04:13:59.476Z,71.15
2018-05-08T04:16:29.480Z,70.44
2018-05-08T04:18:58.665Z,70.25
2018-05-08T04:21:27.917Z,70.55
2018-05-08T04:23:57.133Z,70.13
2018-05-08T04:26:26.386Z,70.25
2018-05-08T04:28:55.590Z,69.24
2018-05-08T04:31:25.786Z,69.22
2018-05-08T04:33:55.033Z,68.95
2018-05-08T04:36:24.568Z,68.59
2018-05-08T04:38:53.800Z,68.41
2018-05-08T04:41:23.028Z,68.51
2018-05-08T04:43:52.255Z,68.57
2018-05-08T04:46:21.508Z,68.74
2018-05-08T04:48:50.700Z,68.71
2018-05-08T04:51:20.716Z,68.62
2018-05-08T04:53:49.937Z,68.62
2018-05-08T04:56:19.138Z,68.52
2018-05-08T04:58:48.376Z,68.54
2018-05-08T05:01:17.594Z,68.31
2018-05-08T05:03:47.623Z,67.57
2018-05-08T05:06:17.726Z,67.91
2018-05-08T05:08:47.050Z,67.70
2018-05-08T05:11:16.322Z,67.34
2018-05-08T05:13:47.060Z,67.23
2018-05-08T05:16:16.283Z,67.28
2018-05-08T05:18:46.289Z,67.17
2018-05-08T05:21:16.243Z,67.40
2018-05-08T05:23:45.566Z,66.99
2018-05-08T05:26:14.785Z,67.21
2018-05-08T05:28:44.037Z,66.99
2018-05-08T05:31:13.237Z,66.38
2018-05-08T05:33:42.597Z,66.29
2018-05-08T05:36:12.585Z,65.48
2018-05-08T05:38:41.854Z,65.32
2018-05-08T05:41:11.078Z,65.45
2018-05-08T05:43:40.367Z,65.28
2018-05-08T05:46:09.550Z,64.62
2018-05-08T05:48:38.781Z,64.53
2018-05-08T05:51:08.001Z,63.74
2018-05-08T05:53:38.014Z,63.29
2018-05-08T05:56:08.092Z,63.68
2018-05-08T05:58:37.405Z,63.40
2018-05-08T06:01:06.607Z,63.17
2018-05-08T06:03:36.714Z,63.50
2018-05-08T06:06:06.063Z,63.28
2018-05-08T06:08:36.069Z,63.40
2018-05-08T06:11:06.506Z,62.84
2018-05-08T06:13:36.537Z,62.10
2018-05-08T06:16:05.780Z,61.53
2018-05-08T06:18:34.972Z,61.49
2018-05-08T06:21:04.216Z,62.00
2018-05-08T06:23:33.460Z,61.08
2018-05-08T06:26:02.713Z,60.73
2018-05-08T06:28:32.762Z,60.40
2018-05-08T06:31:02.028Z,60.11
2018-05-08T06:33:32.065Z,58.96
2018-05-08T06:36:01.301Z,58.48
2018-05-08T06:38:30.736Z,59.66
2018-05-08T06:41:00.774Z,57.83
2018-05-08T06:43:30.022Z,58.25
2018-05-08T06:45:59.228Z,58.80
2018-05-08T06:48:28.473Z,58.60
2018-05-08T06:50:57.694Z,58.59
2018-05-08T06:53:26.910Z,58.07
2018-05-08T06:55:56.270Z,57.61
2018-05-08T06:58:25.533Z,56.38
2018-05-08T07:00:54.749Z,56.97
2018-05-08T07:03:24.030Z,57.33
2018-05-08T07:05:54.013Z,56.54
2018-05-08T07:08:23.326Z,56.29
2018-05-08T07:10:52.525Z,56.48
2018-05-08T07:13:21.868Z,56.30
2018-05-08T07:15:52.010Z,55.81
2018-05-08T07:18:21.094Z,55.05
2018-05-08T07:20:50.328Z,54.12
2018-05-08T07:23:19.645Z,55.09
2018-05-08T07:25:48.853Z,55.51
2018-05-08T07:28:18.854Z,51.03
2018-05-08T07:30:48.413Z,54.45
2018-05-08T07:33:17.576Z,53.90
2018-05-08T07:35:47.665Z,52.09
2018-05-08T07:38:16.921Z,52.92
2018-05-08T07:40:46.145Z,51.94
2018-05-08T07:43:15.355Z,52.08
2018-05-08T07:45:44.584Z,52.64
2018-05-08T07:48:14.565Z,52.81
2018-05-08T07:50:44.602Z,52.79
2018-05-08T07:53:13.886Z,52.80
2018-05-08T07:55:43.120Z,53.26
2018-05-08T07:58:13.115Z,52.71
2018-05-08T08:00:42.420Z,53.17
2018-05-08T08:03:11.673Z,54.01
2018-05-08T08:05:40.948Z,52.91
2018-05-08T08:08:10.285Z,52.24
2018-05-08T08:10:39.532Z,53.46
2018-05-08T08:13:09.709Z,53.27
2018-05-08T08:15:39.153Z,53.09
2018-05-08T08:18:10.128Z,53.66
2018-05-08T08:20:40.285Z,53.16
2018-05-08T08:23:09.517Z,52.86
2018-05-08T08:25:38.810Z,52.89
2018-05-08T08:28:08.864Z,53.04
2018-05-08T08:30:38.097Z,52.88
2018-05-08T08:33:07.322Z,52.65
2018-05-08T08:35:37.393Z,51.84
2018-05-08T08:38:06.745Z,51.46
2018-05-08T08:40:36.020Z,51.14
2018-05-08T08:43:05.242Z,50.55
2018-05-08T08:45:34.431Z,51.38
2018-05-08T08:48:04.401Z,50.87
2018-05-08T08:50:33.697Z,50.80
2018-05-08T08:53:03.001Z,49.17
2018-05-08T08:55:32.260Z,50.41
2018-05-08T08:58:02.259Z,50.69
2018-05-08T09:00:31.636Z,50.47
2018-05-08T09:03:00.850Z,49.93
2018-05-08T09:05:30.074Z,49.24
2018-05-08T09:07:59.271Z,49.46
2018-05-08T09:10:28.517Z,49.01
2018-05-08T09:12:57.724Z,45.91
2018-05-08T09:15:26.969Z,46.93
2018-05-08T09:17:56.156Z,41.73
2018-05-08T09:20:26.134Z,42.51
2018-05-08T09:22:55.339Z,43.09
2018-05-08T09:25:24.553Z,43.70
2018-05-08T09:27:54.532Z,43.89
2018-05-08T09:30:23.870Z,41.92
2018-05-08T09:32:53.992Z,41.04
2018-05-08T09:35:23.167Z,41.93
2018-05-08T09:37:52.454Z,41.35
2018-05-08T09:40:21.668Z,41.68
2018-05-08T09:42:52.379Z,42.12
2018-05-08T09:45:21.653Z,42.00
2018-05-08T09:47:50.861Z,41.21
2018-05-08T09:50:20.155Z,40.72
2018-05-08T09:52:49.399Z,41.61
2018-05-08T09:55:19.382Z,41.28
2018-05-08T09:57:48.689Z,40.74
2018-05-08T10:00:17.888Z,40.46
2018-05-08T10:02:47.905Z,40.61
2018-05-08T10:05:17.156Z,39.58
2018-05-08T10:07:47.136Z,40.24
2018-05-08T10:10:16.373Z,39.91
2018-05-08T10:12:45.593Z,39.97
2018-05-08T10:15:14.924Z,38.54
2018-05-08T10:17:44.138Z,38.64
2018-05-08T10:20:13.339Z,38.93
2018-05-08T10:22:42.706Z,38.10
2018-05-08T10:25:11.960Z,38.02
2018-05-08T10:27:41.953Z,39.00
2018-05-08T10:30:11.222Z,38.88
2018-05-08T10:32:40.641Z,35.82
2018-05-08T10:35:10.011Z,35.38
2018-05-08T10:37:39.221Z,36.12
2018-05-08T10:40:08.477Z,35.76
2018-05-08T10:42:37.913Z,35.29
2018-05-08T10:45:07.027Z,35.95
2018-05-08T10:47:36.304Z,35.57
2018-05-08T10:50:05.576Z,36.52
2018-05-08T10:52:34.820Z,37.10
2018-05-08T10:55:04.093Z,38.51
2018-05-08T10:57:33.311Z,36.04
2018-05-08T11:00:02.631Z,36.70
2018-05-08T11:02:33.364Z,34.92
2018-05-08T11:05:02.597Z,35.52
2018-05-08T11:07:31.824Z,35.19
2018-05-08T11:10:01.018Z,35.10
2018-05-08T11:12:30.372Z,34.46
2018-05-08T11:14:59.498Z,34.87
2018-05-08T11:17:28.745Z,33.82
2018-05-08T11:19:57.979Z,33.40
2018-05-08T11:22:27.957Z,33.53
2018-05-08T11:24:57.150Z,34.46
2018-05-08T11:27:26.531Z,34.23
2018-05-08T11:29:55.734Z,34.44
2018-05-08T11:32:24.959Z,32.81
2018-05-08T11:34:54.155Z,32.28
2018-05-08T11:37:23.381Z,32.61
2018-05-08T11:39:52.619Z,31.90
2018-05-08T11:42:21.877Z,33.15
2018-05-08T11:44:51.863Z,32.12
2018-05-08T11:47:21.065Z,31.64
2018-05-08T11:49:51.046Z,31.80
2018-05-08T11:52:20.290Z,30.98
2018-05-08T11:54:50.440Z,31.06
2018-05-08T11:57:19.686Z,29.92
2018-05-08T11:59:49.082Z,29.64
2018-05-08T12:02:18.353Z,29.41
2018-05-08T12:04:47.581Z,30.16
2018-05-08T12:07:16.796Z,28.23
2018-05-08T12:09:46.040Z,28.02
2018-05-08T12:12:16.005Z,27.91
2018-05-08T12:14:45.254Z,27.69
2018-05-08T12:17:15.185Z,27.69
2018-05-08T12:19:44.391Z,27.44
2018-05-08T12:22:13.592Z,28.58
2018-05-08T12:24:42.825Z,28.04
2018-05-08T12:27:12.823Z,29.13
2018-05-08T12:29:42.078Z,29.61
2018-05-08T12:32:11.283Z,30.17
2018-05-08T12:34:40.509Z,30.59
2018-05-08T12:37:09.718Z,31.94
2018-05-08T12:39:38.927Z,30.92
2018-05-08T12:42:08.196Z,30.57
2018-05-08T12:44:38.280Z,31.15
2018-05-08T12:47:08.248Z,29.33
2018-05-08T12:49:37.498Z,27.83
2018-05-08T12:52:06.692Z,28.87
2018-05-08T12:54:36.994Z,29.18
2018-05-08T12:57:06.376Z,28.47
2018-05-08T12:59:35.574Z,29.81
2018-05-08T13:02:05.600Z,30.09
2018-05-08T13:04:35.594Z,30.47
2018-05-08T13:07:04.973Z,30.21
2018-05-08T13:09:34.170Z,30.31
2018-05-08T13:12:03.381Z,30.14
2018-05-08T13:14:32.570Z,28.58
2018-05-08T13:17:01.775Z,29.57
2018-05-08T13:19:31.003Z,29.36
2018-05-08T13:22:01.106Z,28.38
2018-05-08T13:24:30.320Z,28.79
2018-05-08T13:27:00.298Z,29.58
2018-05-08T13:29:29.529Z,28.45
2018-05-08T13:31:58.821Z,27.66
2018-05-08T13:34:28.815Z,28.60
2018-05-08T13:36:58.024Z,27.93
2018-05-08T13:39:27.280Z,28.63
2018-05-08T13:41:56.550Z,28.73
2018-05-08T13:44:25.782Z,29.92
2018-05-08T13:46:55.717Z,29.12
2018-05-08T13:49:26.482Z,28.62
2018-05-08T13:51:55.695Z,29.30
2018-05-08T13:54:25.700Z,28.10
2018-05-08T13:56:54.966Z,28.28
2018-05-08T13:59:24.225Z,28.19
2018-05-08T14:01:53.449Z,28.43
2018-05-08T14:04:22.703Z,28.90
2018-05-08T14:06:52.737Z,28.90
2018-05-08T14:09:21.931Z,28.95
2018-05-08T14:11:51.245Z,29.52
2018-05-08T14:14:21.463Z,29.57
2018-05-08T14:16:51.482Z,29.11
2018-05-08T14:19:21.534Z,29.38
2018-05-08T14:21:50.673Z,28.73
2018-05-08T14:24:20.710Z,29.25
2018-05-08T14:26:50.695Z,29.86
2018-05-08T14:29:20.786Z,28.80
2018-05-08T14:31:50.010Z,28.45
2018-05-08T14:34:20.493Z,28.95
2018-05-08T14:36:49.740Z,29.20
2018-05-08T14:39:19.725Z,29.69
2018-05-08T14:41:48.949Z,29.34
2018-05-08T14:44:18.992Z,29.50
2018-05-08T14:46:48.238Z,29.42
2018-05-08T14:49:17.515Z,29.12
2018-05-08T14:51:46.762Z,29.19
2018-05-08T14:54:16.956Z,29.00
2018-05-08T14:56:46.184Z,29.45
2018-05-08T14:59:15.397Z,29.82
2018-05-08T15:01:44.831Z,29.34
2018-05-08T15:04:14.120Z,28.60
2018-05-08T15:06:43.226Z,28.97
2018-05-08T15:09:12.474Z,28.72
2018-05-08T15:11:42.461Z,29.73
2018-05-08T15:14:11.691Z,29.39
2018-05-08T15:16:40.972Z,28.97
2018-05-08T15:19:10.174Z,28.72
2018-05-08T15:21:40.214Z,29.03
2018-05-08T15:24:09.399Z,29.87
2018-05-08T15:26:39.374Z,29.56
2018-05-08T15:29:08.634Z,29.17
2018-05-08T15:31:37.785Z,29.80
2018-05-08T15:34:07.078Z,29.30
2018-05-08T15:36:36.269Z,28.96
2018-05-08T15:39:06.417Z,29.48
2018-05-08T15:41:36.424Z,29.48
2018-05-08T15:44:06.421Z,29.49
2018-05-08T15:46:35.641Z,29.62
2018-05-08T15:49:05.066Z,29.90
2018-05-08T15:51:34.334Z,30.18
2018-05-08T15:54:05.062Z,30.42
2018-05-08T15:56:35.067Z,30.54
2018-05-08T15:59:04.269Z,31.50
2018-05-08T16:01:33.553Z,31.09
2018-05-08T16:04:02.763Z,31.11
2018-05-08T16:06:31.994Z,30.72
2018-05-08T16:09:01.982Z,31.46
2018-05-08T16:11:31.363Z,31.90
2018-05-08T16:14:00.562Z,31.95
2018-05-08T16:16:29.814Z,32.15
2018-05-08T16:18:59.916Z,32.69
2018-05-08T16:21:29.421Z,33.17
2018-05-08T16:23:58.748Z,33.38
2018-05-08T16:26:28.709Z,33.55
2018-05-08T16:28:57.910Z,33.97
2018-05-08T16:31:27.157Z,33.91
2018-05-08T16:33:56.423Z,34.43
2018-05-08T16:36:25.639Z,34.96
2018-05-08T16:38:55.637Z,34.92
2018-05-08T16:41:24.981Z,33.99
2018-05-08T16:43:54.211Z,35.02
2018-05-08T16:46:23.459Z,34.77
2018-05-08T16:48:54.476Z,34.75
2018-05-08T16:51:23.734Z,35.03
2018-05-08T16:53:53.153Z,34.85
2018-05-08T16:56:22.303Z,34.23
2018-05-08T16:58:51.584Z,34.73
2018-05-08T17:01:20.794Z,35.06
2018-05-08T17:03:50.046Z,35.19
2018-05-08T17:06:19.268Z,34.98
2018-05-08T17:08:48.526Z,35.17
2018-05-08T17:11:17.751Z,35.30
2018-05-08T17:13:47.216Z,35.49
2018-05-08T17:16:16.464Z,35.82
2018-05-08T17:18:45.721Z,35.88
2018-05-08T17:21:14.902Z,35.81
2018-05-08T17:23:44.124Z,35.84
2018-05-08T17:26:13.313Z,36.09
2018-05-08T17:28:42.579Z,36.32
2018-05-08T17:31:12.576Z,36.28
2018-05-08T17:33:42.599Z,36.69
2018-05-08T17:36:11.945Z,37.03
2018-05-08T17:38:41.080Z,37.02
2018-05-08T17:41:10.291Z,37.25
2018-05-08T17:43:40.289Z,37.77
2018-05-08T17:46:09.538Z,37.80
2018-05-08T17:48:38.769Z,37.58
2018-05-08T17:51:08.026Z,37.98
2018-05-08T17:53:37.234Z,38.00
2018-05-08T17:56:06.458Z,38.10
2018-05-08T17:58:35.641Z,38.38
2018-05-08T18:01:04.857Z,38.55
2018-05-08T18:03:35.693Z,38.45
2018-05-08T18:06:04.915Z,38.71
2018-05-08T18:08:34.929Z,39.05
2018-05-08T18:11:05.050Z,38.75
2018-05-08T18:13:35.051Z,39.02
2018-05-08T18:16:04.264Z,39.22
2018-05-08T18:18:34.255Z,39.36
2018-05-08T18:21:03.503Z,39.44
2018-05-08T18:23:32.763Z,39.91
2018-05-08T18:26:02.665Z,40.17
2018-05-08T18:28:32.645Z,40.11
2018-05-08T18:31:02.021Z,40.24
2018-05-08T18:33:31.285Z,40.43
2018-05-08T18:36:00.485Z,40.79
2018-05-08T18:38:29.823Z,40.82
2018-05-08T18:41:00.152Z,41.12
2018-05-08T18:43:29.375Z,40.88
2018-05-08T18:45:58.619Z,40.84
2018-05-08T18:48:27.839Z,41.01
2018-05-08T18:50:57.090Z,41.11
2018-05-08T18:53:26.325Z,41.19
2018-05-08T18:55:56.349Z,41.23
2018-05-08T18:58:27.031Z,41.57
2018-05-08T19:00:56.578Z,41.89
2018-05-08T19:03:26.686Z,42.01
2018-05-08T19:05:55.927Z,42.12
2018-05-08T19:08:25.842Z,42.38
2018-05-08T19:11:00.614Z,42.81
2018-05-08T19:13:29.840Z,42.63
2018-05-08T19:16:04.177Z,42.93
2018-05-08T19:18:38.927Z,43.31
2018-05-08T19:21:08.160Z,43.21
2018-05-08T19:23:37.349Z,43.73
2018-05-08T19:26:06.603Z,43.80
2018-05-08T19:28:42.066Z,43.98
2018-05-08T19:31:11.326Z,44.20
2018-05-08T19:33:41.299Z,44.25
2018-05-08T19:36:16.018Z,44.21
2018-05-08T19:38:45.334Z,44.30
2018-05-08T19:41:16.101Z,44.06
2018-05-08T19:43:45.454Z,43.41
2018-05-08T19:46:15.665Z,43.70
2018-05-08T19:48:44.907Z,43.79
2018-05-08T19:51:15.077Z,43.36
2018-05-08T19:53:44.331Z,43.49
2018-05-08T19:56:13.742Z,43.19
2018-05-08T19:58:43.738Z,43.18
2018-05-08T20:01:13.742Z,42.71
2018-05-08T20:03:43.611Z,41.82
2018-05-08T20:06:12.871Z,41.87
2018-05-08T20:08:42.939Z,41.53
2018-05-08T20:11:12.162Z,41.82
2018-05-08T20:13:41.378Z,41.49
2018-05-08T20:16:11.472Z,41.60
2018-05-08T20:18:40.704Z,41.25
2018-05-08T20:21:10.774Z,41.25
2018-05-08T20:23:39.990Z,40.82
2018-05-08T20:26:09.268Z,40.93
2018-05-08T20:28:38.490Z,41.19
2018-05-08T20:31:09.194Z,40.74
2018-05-08T20:33:38.442Z,41.01
2018-05-08T20:36:08.508Z,41.12
2018-05-08T20:38:37.690Z,41.11
2018-05-08T20:41:06.929Z,41.30
2018-05-08T20:43:37.794Z,41.35
2018-05-08T20:46:07.054Z,41.42
2018-05-08T20:48:36.284Z,41.69
2018-05-08T20:51:05.543Z,41.81
2018-05-08T20:53:34.777Z,41.86
2018-05-08T20:56:04.013Z,41.88
2018-05-08T20:58:33.419Z,41.83
2018-05-08T21:01:02.800Z,41.86
2018-05-08T21:03:32.020Z,42.29
2018-05-08T21:06:01.978Z,42.27
2018-05-08T21:08:31.190Z,42.29
2018-05-08T21:11:01.420Z,42.60
2018-05-08T21:13:31.381Z,42.86
2018-05-08T21:16:00.602Z,42.82
2018-05-08T21:18:29.857Z,42.75
2018-05-08T21:20:59.886Z,42.89
2018-05-08T21:23:29.088Z,43.10
2018-05-08T21:25:59.129Z,43.16
2018-05-08T21:28:33.827Z,43.38
2018-05-08T21:31:08.871Z,43.72
2018-05-08T21:33:38.095Z,43.81
2018-05-08T21:36:07.324Z,43.84
2018-05-08T21:38:37.306Z,43.96
2018-05-08T21:41:06.571Z,44.16
2018-05-08T21:43:35.786Z,44.40
2018-05-08T21:46:05.205Z,44.40
2018-05-08T21:48:34.441Z,44.34
2018-05-08T21:51:03.653Z,44.46
2018-05-08T21:53:32.890Z,44.66
2018-05-08T21:56:02.175Z,44.81
2018-05-08T21:58:31.386Z,45.34
2018-05-08T22:01:00.622Z,45.17
2018-05-08T22:03:30.601Z,45.46
2018-05-08T22:05:59.843Z,45.75
2018-05-08T22:08:29.090Z,45.97
2018-05-08T22:10:58.329Z,46.10
2018-05-08T22:13:27.550Z,46.07
2018-05-08T22:15:56.776Z,46.34
2018-05-08T22:18:25.994Z,46.31
2018-05-08T22:20:55.205Z,46.76
2018-05-08T22:23:24.423Z,46.65
2018-05-08T22:25:53.662Z,46.83
2018-05-08T22:28:22.894Z,47.34
2018-05-08T22:30:52.115Z,47.23
2018-05-08T22:33:21.314Z,47.19
2018-05-08T22:35:50.541Z,47.66
2018-05-08T22:38:19.738Z,47.66
2018-05-08T22:40:49.010Z,47.71
2018-05-08T22:43:18.989Z,47.76
2018-05-08T22:45:48.228Z,47.71
2018-05-08T22:48:18.198Z,47.85
2018-05-08T22:50:47.413Z,48.32
2018-05-08T22:53:16.633Z,48.37
2018-05-08T22:55:46.642Z,48.35
2018-05-08T22:58:16.030Z,48.71
2018-05-08T23:00:45.261Z,48.61
2018-05-08T23:03:14.497Z,48.65
2018-05-08T23:05:43.703Z,48.94
2018-05-08T23:08:12.921Z,48.90
2018-05-08T23:10:42.175Z,48.92
2018-05-08T23:13:11.364Z,48.79
2018-05-08T23:15:40.556Z,48.87
2018-05-08T23:18:09.834Z,49.21
2018-05-08T23:20:38.988Z,49.19
2018-05-08T23:23:08.242Z,49.29
2018-05-08T23:25:38.193Z,49.31
2018-05-08T23:28:07.414Z,49.25
2018-05-08T23:30:36.625Z,49.32
2018-05-08T23:33:06.053Z,49.44
2018-05-08T23:35:35.245Z,49.73
2018-05-08T23:38:05.211Z,49.52
2018-05-08T23:40:34.500Z,49.65
2018-05-08T23:43:03.713Z,49.75
2018-05-08T23:45:34.426Z,49.85
2018-05-08T23:48:03.668Z,49.63
2018-05-08T23:50:33.662Z,49.82
2018-05-08T23:53:02.922Z,49.99
2018-05-08T23:55:32.157Z,50.16
2018-05-08T23:58:01.348Z,49.91
